sensor_id;sensor_type;location;lat;lon;timestamp;temperature;humidity
5560;DHT22;2803;47.916;8.074;2022-11-25T00:01:50;5.40;99.90
5560;DHT22;2803;47.916;8.074;2022-11-25T00:04:17;5.60;99.90
5560;DHT22;2803;47.916;8.074;2022-11-25T00:06:43;6.10;99.90
5560;DHT22;2803;47.916;8.074;2022-11-25T00:09:10;6.30;99.90
5560;DHT22;2803;47.916;8.074;2022-11-25T00:11:38;6.40;99.90
5560;DHT22;2803;47.916;8.074;2022-11-25T00:14:07;6.60;99.90
5560;DHT22;2803;47.916;8.074;2022-11-25T00:16:33;6.70;99.90
5560;DHT22;2803;47.916;8.074;2022-11-25T00:19:02;6.60;99.90
5560;DHT22;2803;47.916;8.074;2022-11-25T00:21:32;6.70;99.90
5560;DHT22;2803;47.916;8.074;2022-11-25T00:24:00;6.70;99.90
5560;DHT22;2803;47.916;8.074;2022-11-25T00:26:28;6.70;99.90
5560;DHT22;2803;47.916;8.074;2022-11-25T00:28:58;6.50;99.90
5560;DHT22;2803;47.916;8.074;2022-11-25T00:31:26;6.20;99.90
5560;DHT22;2803;47.916;8.074;2022-11-25T00:33:54;6.40;99.90
5560;DHT22;2803;47.916;8.074;2022-11-25T00:36:23;6.50;99.90
5560;DHT22;2803;47.916;8.074;2022-11-25T00:38:52;6.40;99.90
5560;DHT22;2803;47.916;8.074;2022-11-25T00:41:20;6.60;99.90
5560;DHT22;2803;47.916;8.074;2022-11-25T00:44:00;6.50;99.90
5560;DHT22;2803;47.916;8.074;2022-11-25T00:46:41;6.70;99.90
5560;DHT22;2803;47.916;8.074;2022-11-25T00:49:08;6.70;99.90
5560;DHT22;2803;47.916;8.074;2022-11-25T00:51:36;6.90;99.90
5560;DHT22;2803;47.916;8.074;2022-11-25T00:54:02;6.90;99.90
5560;DHT22;2803;47.916;8.074;2022-11-25T00:56:29;6.60;99.90
5560;DHT22;2803;47.916;8.074;2022-11-25T00:58:58;6.50;99.90
5560;DHT22;2803;47.916;8.074;2022-11-25T01:01:25;6.60;99.90
5560;DHT22;2803;47.916;8.074;2022-11-25T01:03:52;6.60;99.90
5560;DHT22;2803;47.916;8.074;2022-11-25T01:06:19;6.30;99.90
5560;DHT22;2803;47.916;8.074;2022-11-25T01:08:48;6.70;99.90
5560;DHT22;2803;47.916;8.074;2022-11-25T01:11:16;6.80;99.90
5560;DHT22;2803;47.916;8.074;2022-11-25T01:13:43;6.80;99.90
5560;DHT22;2803;47.916;8.074;2022-11-25T01:16:12;6.80;99.90
5560;DHT22;2803;47.916;8.074;2022-11-25T01:18:40;6.90;99.90
5560;DHT22;2803;47.916;8.074;2022-11-25T01:21:07;6.70;99.90
5560;DHT22;2803;47.916;8.074;2022-11-25T01:23:35;6.50;99.90
5560;DHT22;2803;47.916;8.074;2022-11-25T01:26:04;6.80;99.90
5560;DHT22;2803;47.916;8.074;2022-11-25T01:28:32;7.00;99.90
5560;DHT22;2803;47.916;8.074;2022-11-25T01:31:00;6.90;99.90
5560;DHT22;2803;47.916;8.074;2022-11-25T01:33:27;7.10;99.90
5560;DHT22;2803;47.916;8.074;2022-11-25T01:35:53;7.30;99.90
5560;DHT22;2803;47.916;8.074;2022-11-25T01:38:20;7.40;99.90
5560;DHT22;2803;47.916;8.074;2022-11-25T01:40:46;6.60;99.90
5560;DHT22;2803;47.916;8.074;2022-11-25T01:43:15;6.90;99.90
5560;DHT22;2803;47.916;8.074;2022-11-25T01:45:41;6.90;99.90
5560;DHT22;2803;47.916;8.074;2022-11-25T01:48:13;6.90;99.90
5560;DHT22;2803;47.916;8.074;2022-11-25T01:50:42;6.90;99.90
5560;DHT22;2803;47.916;8.074;2022-11-25T01:53:12;6.60;99.90
5560;DHT22;2803;47.916;8.074;2022-11-25T01:55:43;7.00;99.90
5560;DHT22;2803;47.916;8.074;2022-11-25T01:58:13;7.20;99.90
5560;DHT22;2803;47.916;8.074;2022-11-25T02:00:42;7.30;99.90
5560;DHT22;2803;47.916;8.074;2022-11-25T02:03:16;7.10;99.90
5560;DHT22;2803;47.916;8.074;2022-11-25T02:05:48;7.10;99.90
5560;DHT22;2803;47.916;8.074;2022-11-25T02:08:18;7.10;99.90
5560;DHT22;2803;47.916;8.074;2022-11-25T02:10:45;7.20;99.90
5560;DHT22;2803;47.916;8.074;2022-11-25T02:13:12;7.30;99.90
5560;DHT22;2803;47.916;8.074;2022-11-25T02:15:39;7.20;99.90
5560;DHT22;2803;47.916;8.074;2022-11-25T02:18:07;7.30;99.90
5560;DHT22;2803;47.916;8.074;2022-11-25T02:20:34;7.10;99.90
5560;DHT22;2803;47.916;8.074;2022-11-25T02:23:08;7.40;99.90
5560;DHT22;2803;47.916;8.074;2022-11-25T02:25:40;7.30;99.90
5560;DHT22;2803;47.916;8.074;2022-11-25T02:28:11;7.40;99.90
5560;DHT22;2803;47.916;8.074;2022-11-25T02:30:39;7.30;99.90
5560;DHT22;2803;47.916;8.074;2022-11-25T02:33:06;7.50;99.90
5560;DHT22;2803;47.916;8.074;2022-11-25T02:35:35;7.40;99.90
5560;DHT22;2803;47.916;8.074;2022-11-25T02:38:07;7.40;99.90
5560;DHT22;2803;47.916;8.074;2022-11-25T02:40:36;7.60;99.90
5560;DHT22;2803;47.916;8.074;2022-11-25T02:43:07;7.70;99.90
5560;DHT22;2803;47.916;8.074;2022-11-25T02:45:45;7.50;99.90
5560;DHT22;2803;47.916;8.074;2022-11-25T02:48:13;7.20;99.90
5560;DHT22;2803;47.916;8.074;2022-11-25T02:50:40;7.00;99.90
5560;DHT22;2803;47.916;8.074;2022-11-25T02:53:07;7.30;99.90
5560;DHT22;2803;47.916;8.074;2022-11-25T02:55:33;7.20;99.90
5560;DHT22;2803;47.916;8.074;2022-11-25T02:58:00;7.20;99.90
5560;DHT22;2803;47.916;8.074;2022-11-25T03:00:29;7.40;99.90
5560;DHT22;2803;47.916;8.074;2022-11-25T03:02:56;7.30;99.90
5560;DHT22;2803;47.916;8.074;2022-11-25T03:05:22;7.50;99.90
5560;DHT22;2803;47.916;8.074;2022-11-25T03:07:49;7.40;99.90
5560;DHT22;2803;47.916;8.074;2022-11-25T03:10:16;7.20;99.90
5560;DHT22;2803;47.916;8.074;2022-11-25T03:12:43;7.20;99.90
5560;DHT22;2803;47.916;8.074;2022-11-25T03:15:10;7.30;99.90
5560;DHT22;2803;47.916;8.074;2022-11-25T03:17:38;7.20;99.90
5560;DHT22;2803;47.916;8.074;2022-11-25T03:20:06;6.60;99.90
5560;DHT22;2803;47.916;8.074;2022-11-25T03:22:33;6.60;99.90
5560;DHT22;2803;47.916;8.074;2022-11-25T03:25:00;7.10;99.90
5560;DHT22;2803;47.916;8.074;2022-11-25T03:27:27;7.50;99.90
5560;DHT22;2803;47.916;8.074;2022-11-25T03:29:54;7.50;99.90
5560;DHT22;2803;47.916;8.074;2022-11-25T03:32:21;7.60;99.90
5560;DHT22;2803;47.916;8.074;2022-11-25T03:34:49;7.70;99.90
5560;DHT22;2803;47.916;8.074;2022-11-25T03:37:15;7.80;99.90
5560;DHT22;2803;47.916;8.074;2022-11-25T03:39:42;7.70;99.90
5560;DHT22;2803;47.916;8.074;2022-11-25T03:42:08;7.60;99.90
5560;DHT22;2803;47.916;8.074;2022-11-25T03:44:35;7.60;99.90
5560;DHT22;2803;47.916;8.074;2022-11-25T03:47:02;7.50;99.90
5560;DHT22;2803;47.916;8.074;2022-11-25T03:49:29;7.50;99.90
5560;DHT22;2803;47.916;8.074;2022-11-25T03:51:57;7.40;99.90
5560;DHT22;2803;47.916;8.074;2022-11-25T03:54:24;7.50;99.90
5560;DHT22;2803;47.916;8.074;2022-11-25T03:56:50;7.60;99.90
5560;DHT22;2803;47.916;8.074;2022-11-25T03:59:17;7.80;99.90
5560;DHT22;2803;47.916;8.074;2022-11-25T04:01:43;7.60;99.90
5560;DHT22;2803;47.916;8.074;2022-11-25T04:04:10;7.40;99.90
5560;DHT22;2803;47.916;8.074;2022-11-25T04:06:37;7.60;99.90
5560;DHT22;2803;47.916;8.074;2022-11-25T04:09:06;7.90;99.90
5560;DHT22;2803;47.916;8.074;2022-11-25T04:11:32;7.90;99.90
5560;DHT22;2803;47.916;8.074;2022-11-25T04:14:13;7.90;99.90
5560;DHT22;2803;47.916;8.074;2022-11-25T04:16:39;7.40;99.90
5560;DHT22;2803;47.916;8.074;2022-11-25T04:19:06;7.20;99.90
5560;DHT22;2803;47.916;8.074;2022-11-25T04:21:33;7.50;99.90
5560;DHT22;2803;47.916;8.074;2022-11-25T04:23:59;7.70;99.90
5560;DHT22;2803;47.916;8.074;2022-11-25T04:26:27;7.50;99.90
5560;DHT22;2803;47.916;8.074;2022-11-25T04:28:54;7.20;99.90
5560;DHT22;2803;47.916;8.074;2022-11-25T04:31:21;7.30;99.90
5560;DHT22;2803;47.916;8.074;2022-11-25T04:33:48;7.70;99.90
5560;DHT22;2803;47.916;8.074;2022-11-25T04:36:15;7.60;99.90
5560;DHT22;2803;47.916;8.074;2022-11-25T04:38:41;7.70;99.90
5560;DHT22;2803;47.916;8.074;2022-11-25T04:41:08;7.90;99.90
5560;DHT22;2803;47.916;8.074;2022-11-25T04:43:36;8.00;99.90
5560;DHT22;2803;47.916;8.074;2022-11-25T04:46:03;7.50;99.90
5560;DHT22;2803;47.916;8.074;2022-11-25T04:48:30;7.60;99.90
5560;DHT22;2803;47.916;8.074;2022-11-25T04:50:57;7.20;99.90
5560;DHT22;2803;47.916;8.074;2022-11-25T04:53:23;7.20;99.90
5560;DHT22;2803;47.916;8.074;2022-11-25T04:55:50;7.40;99.90
5560;DHT22;2803;47.916;8.074;2022-11-25T04:58:16;7.60;99.90
5560;DHT22;2803;47.916;8.074;2022-11-25T05:01:04;7.70;99.90
5560;DHT22;2803;47.916;8.074;2022-11-25T05:03:30;7.40;99.90
5560;DHT22;2803;47.916;8.074;2022-11-25T05:05:56;7.40;99.90
5560;DHT22;2803;47.916;8.074;2022-11-25T05:08:23;7.40;99.90
5560;DHT22;2803;47.916;8.074;2022-11-25T05:10:50;7.50;99.90
5560;DHT22;2803;47.916;8.074;2022-11-25T05:13:16;7.50;99.90
5560;DHT22;2803;47.916;8.074;2022-11-25T05:15:43;7.20;99.90
5560;DHT22;2803;47.916;8.074;2022-11-25T05:18:11;7.00;99.90
5560;DHT22;2803;47.916;8.074;2022-11-25T05:20:37;6.80;99.90
5560;DHT22;2803;47.916;8.074;2022-11-25T05:23:04;7.00;99.90
5560;DHT22;2803;47.916;8.074;2022-11-25T05:25:30;7.10;99.90
5560;DHT22;2803;47.916;8.074;2022-11-25T05:27:57;7.10;99.90
5560;DHT22;2803;47.916;8.074;2022-11-25T05:30:24;7.30;99.90
5560;DHT22;2803;47.916;8.074;2022-11-25T05:32:50;7.30;99.90
5560;DHT22;2803;47.916;8.074;2022-11-25T05:35:18;7.20;99.90
5560;DHT22;2803;47.916;8.074;2022-11-25T05:37:47;7.50;99.90
5560;DHT22;2803;47.916;8.074;2022-11-25T05:40:14;7.70;99.90
5560;DHT22;2803;47.916;8.074;2022-11-25T05:42:41;7.80;99.90
5560;DHT22;2803;47.916;8.074;2022-11-25T05:45:08;7.30;99.90
5560;DHT22;2803;47.916;8.074;2022-11-25T05:47:36;7.20;99.90
5560;DHT22;2803;47.916;8.074;2022-11-25T05:50:03;7.40;99.90
5560;DHT22;2803;47.916;8.074;2022-11-25T05:52:31;7.60;99.90
5560;DHT22;2803;47.916;8.074;2022-11-25T05:54:58;7.70;99.90
5560;DHT22;2803;47.916;8.074;2022-11-25T05:57:24;7.70;99.90
5560;DHT22;2803;47.916;8.074;2022-11-25T05:59:53;7.60;99.90
5560;DHT22;2803;47.916;8.074;2022-11-25T06:02:19;7.70;99.90
5560;DHT22;2803;47.916;8.074;2022-11-25T06:04:46;7.80;99.90
5560;DHT22;2803;47.916;8.074;2022-11-25T06:07:13;8.00;99.90
5560;DHT22;2803;47.916;8.074;2022-11-25T06:09:40;8.10;99.90
5560;DHT22;2803;47.916;8.074;2022-11-25T06:12:07;8.00;99.90
5560;DHT22;2803;47.916;8.074;2022-11-25T06:14:34;7.80;99.90
5560;DHT22;2803;47.916;8.074;2022-11-25T06:17:00;7.90;99.90
5560;DHT22;2803;47.916;8.074;2022-11-25T06:19:27;8.00;99.90
5560;DHT22;2803;47.916;8.074;2022-11-25T06:21:54;8.10;99.90
5560;DHT22;2803;47.916;8.074;2022-11-25T06:24:20;8.20;99.90
5560;DHT22;2803;47.916;8.074;2022-11-25T06:26:48;8.10;99.90
5560;DHT22;2803;47.916;8.074;2022-11-25T06:29:15;8.00;99.90
5560;DHT22;2803;47.916;8.074;2022-11-25T06:31:41;7.50;99.90
5560;DHT22;2803;47.916;8.074;2022-11-25T06:34:08;7.80;99.90
5560;DHT22;2803;47.916;8.074;2022-11-25T06:36:34;7.60;99.90
5560;DHT22;2803;47.916;8.074;2022-11-25T06:39:01;7.40;99.90
5560;DHT22;2803;47.916;8.074;2022-11-25T06:41:28;7.80;99.90
5560;DHT22;2803;47.916;8.074;2022-11-25T06:43:55;8.00;99.90
5560;DHT22;2803;47.916;8.074;2022-11-25T06:46:22;7.80;99.90
5560;DHT22;2803;47.916;8.074;2022-11-25T06:48:49;7.90;99.90
5560;DHT22;2803;47.916;8.074;2022-11-25T06:51:15;8.10;99.90
5560;DHT22;2803;47.916;8.074;2022-11-25T06:53:42;8.10;99.90
5560;DHT22;2803;47.916;8.074;2022-11-25T06:56:12;8.00;99.90
5560;DHT22;2803;47.916;8.074;2022-11-25T06:58:40;8.20;99.90
5560;DHT22;2803;47.916;8.074;2022-11-25T07:01:12;7.70;99.90
5560;DHT22;2803;47.916;8.074;2022-11-25T07:03:39;7.60;99.90
5560;DHT22;2803;47.916;8.074;2022-11-25T07:06:06;7.90;99.90
5560;DHT22;2803;47.916;8.074;2022-11-25T07:08:33;8.10;99.90
5560;DHT22;2803;47.916;8.074;2022-11-25T07:11:02;8.40;99.90
5560;DHT22;2803;47.916;8.074;2022-11-25T07:13:29;8.60;99.90
5560;DHT22;2803;47.916;8.074;2022-11-25T07:16:00;8.40;99.90
5560;DHT22;2803;47.916;8.074;2022-11-25T07:18:29;8.30;99.90
5560;DHT22;2803;47.916;8.074;2022-11-25T07:21:01;8.30;99.90
5560;DHT22;2803;47.916;8.074;2022-11-25T07:23:27;7.90;99.90
5560;DHT22;2803;47.916;8.074;2022-11-25T07:25:54;8.20;99.90
5560;DHT22;2803;47.916;8.074;2022-11-25T07:28:21;8.40;99.90
5560;DHT22;2803;47.916;8.074;2022-11-25T07:30:47;8.30;99.90
5560;DHT22;2803;47.916;8.074;2022-11-25T07:33:15;8.60;99.90
5560;DHT22;2803;47.916;8.074;2022-11-25T07:35:42;8.40;99.90
5560;DHT22;2803;47.916;8.074;2022-11-25T07:38:09;8.70;99.90
5560;DHT22;2803;47.916;8.074;2022-11-25T07:40:36;9.00;99.90
5560;DHT22;2803;47.916;8.074;2022-11-25T07:43:02;9.20;99.90
5560;DHT22;2803;47.916;8.074;2022-11-25T07:45:29;9.20;99.90
5560;DHT22;2803;47.916;8.074;2022-11-25T07:47:56;9.30;99.90
5560;DHT22;2803;47.916;8.074;2022-11-25T07:50:22;9.40;99.90
5560;DHT22;2803;47.916;8.074;2022-11-25T07:52:50;9.50;99.90
5560;DHT22;2803;47.916;8.074;2022-11-25T07:55:17;9.60;99.90
5560;DHT22;2803;47.916;8.074;2022-11-25T07:57:43;9.70;99.90
5560;DHT22;2803;47.916;8.074;2022-11-25T08:00:10;9.90;99.90
5560;DHT22;2803;47.916;8.074;2022-11-25T08:02:38;10.00;99.90
5560;DHT22;2803;47.916;8.074;2022-11-25T08:05:06;10.10;99.90
5560;DHT22;2803;47.916;8.074;2022-11-25T08:07:32;10.00;99.90
5560;DHT22;2803;47.916;8.074;2022-11-25T08:10:00;9.90;99.90
5560;DHT22;2803;47.916;8.074;2022-11-25T08:12:27;10.10;99.90
5560;DHT22;2803;47.916;8.074;2022-11-25T08:14:53;9.90;99.90
5560;DHT22;2803;47.916;8.074;2022-11-25T08:17:20;10.20;99.90
5560;DHT22;2803;47.916;8.074;2022-11-25T08:19:47;10.10;99.90
5560;DHT22;2803;47.916;8.074;2022-11-25T08:22:14;10.40;99.90
5560;DHT22;2803;47.916;8.074;2022-11-25T08:24:40;10.40;99.90
5560;DHT22;2803;47.916;8.074;2022-11-25T08:27:08;10.60;99.90
5560;DHT22;2803;47.916;8.074;2022-11-25T08:29:35;10.60;99.90
5560;DHT22;2803;47.916;8.074;2022-11-25T08:32:01;10.40;99.90
5560;DHT22;2803;47.916;8.074;2022-11-25T08:34:28;10.50;99.90
5560;DHT22;2803;47.916;8.074;2022-11-25T08:36:55;10.10;99.90
5560;DHT22;2803;47.916;8.074;2022-11-25T08:39:21;10.10;99.90
5560;DHT22;2803;47.916;8.074;2022-11-25T08:41:48;9.90;99.90
5560;DHT22;2803;47.916;8.074;2022-11-25T08:44:16;10.10;99.90
5560;DHT22;2803;47.916;8.074;2022-11-25T08:46:43;10.40;99.90
5560;DHT22;2803;47.916;8.074;2022-11-25T08:49:11;10.10;99.90
5560;DHT22;2803;47.916;8.074;2022-11-25T08:51:39;10.60;99.90
5560;DHT22;2803;47.916;8.074;2022-11-25T08:54:06;10.70;99.90
5560;DHT22;2803;47.916;8.074;2022-11-25T08:56:33;10.30;99.90
5560;DHT22;2803;47.916;8.074;2022-11-25T08:59:00;10.60;99.90
5560;DHT22;2803;47.916;8.074;2022-11-25T09:01:28;11.00;99.90
5560;DHT22;2803;47.916;8.074;2022-11-25T09:03:56;11.20;99.90
5560;DHT22;2803;47.916;8.074;2022-11-25T09:06:24;11.50;99.90
5560;DHT22;2803;47.916;8.074;2022-11-25T09:08:54;11.50;99.90
5560;DHT22;2803;47.916;8.074;2022-11-25T09:11:21;11.50;99.90
5560;DHT22;2803;47.916;8.074;2022-11-25T09:13:48;11.60;99.90
5560;DHT22;2803;47.916;8.074;2022-11-25T09:16:14;11.70;99.90
5560;DHT22;2803;47.916;8.074;2022-11-25T09:18:42;11.70;99.90
5560;DHT22;2803;47.916;8.074;2022-11-25T09:21:11;11.70;99.90
5560;DHT22;2803;47.916;8.074;2022-11-25T09:23:38;11.60;99.90
5560;DHT22;2803;47.916;8.074;2022-11-25T09:26:06;11.20;99.90
5560;DHT22;2803;47.916;8.074;2022-11-25T09:28:34;11.20;99.90
5560;DHT22;2803;47.916;8.074;2022-11-25T09:31:06;11.30;99.90
5560;DHT22;2803;47.916;8.074;2022-11-25T09:33:33;11.10;99.90
5560;DHT22;2803;47.916;8.074;2022-11-25T09:36:01;11.10;99.90
5560;DHT22;2803;47.916;8.074;2022-11-25T09:38:28;10.70;99.90
5560;DHT22;2803;47.916;8.074;2022-11-25T09:41:00;11.10;99.90
5560;DHT22;2803;47.916;8.074;2022-11-25T09:43:38;11.50;99.90
5560;DHT22;2803;47.916;8.074;2022-11-25T09:46:34;11.60;99.90
5560;DHT22;2803;47.916;8.074;2022-11-25T09:49:23;11.50;99.90
5560;DHT22;2803;47.916;8.074;2022-11-25T09:52:02;11.80;99.90
5560;DHT22;2803;47.916;8.074;2022-11-25T09:54:36;11.80;99.90
5560;DHT22;2803;47.916;8.074;2022-11-25T09:57:14;12.00;99.90
5560;DHT22;2803;47.916;8.074;2022-11-25T09:59:49;12.10;99.90
5560;DHT22;2803;47.916;8.074;2022-11-25T10:02:25;12.30;99.90
5560;DHT22;2803;47.916;8.074;2022-11-25T10:04:58;12.30;99.90
5560;DHT22;2803;47.916;8.074;2022-11-25T10:07:34;11.80;99.90
5560;DHT22;2803;47.916;8.074;2022-11-25T10:10:03;11.90;99.90
5560;DHT22;2803;47.916;8.074;2022-11-25T10:12:33;12.30;99.90
5560;DHT22;2803;47.916;8.074;2022-11-25T10:15:07;12.40;99.90
5560;DHT22;2803;47.916;8.074;2022-11-25T10:17:41;12.50;99.90
5560;DHT22;2803;47.916;8.074;2022-11-25T10:20:14;12.70;99.90
5560;DHT22;2803;47.916;8.074;2022-11-25T10:22:45;12.90;99.90
5560;DHT22;2803;47.916;8.074;2022-11-25T10:25:15;13.30;99.90
5560;DHT22;2803;47.916;8.074;2022-11-25T10:27:45;14.00;99.90
5560;DHT22;2803;47.916;8.074;2022-11-25T10:30:17;14.60;99.90
5560;DHT22;2803;47.916;8.074;2022-11-25T10:32:50;15.40;99.90
5560;DHT22;2803;47.916;8.074;2022-11-25T10:35:25;15.70;99.90
5560;DHT22;2803;47.916;8.074;2022-11-25T10:37:57;15.30;99.90
5560;DHT22;2803;47.916;8.074;2022-11-25T10:40:24;15.40;99.90
5560;DHT22;2803;47.916;8.074;2022-11-25T10:42:51;14.70;99.90
5560;DHT22;2803;47.916;8.074;2022-11-25T10:45:20;14.40;99.90
5560;DHT22;2803;47.916;8.074;2022-11-25T10:48:05;14.50;99.90
5560;DHT22;2803;47.916;8.074;2022-11-25T10:50:36;14.60;99.90
5560;DHT22;2803;47.916;8.074;2022-11-25T10:53:12;14.60;99.90
5560;DHT22;2803;47.916;8.074;2022-11-25T10:55:55;14.80;99.90
5560;DHT22;2803;47.916;8.074;2022-11-25T10:58:27;14.80;99.90
5560;DHT22;2803;47.916;8.074;2022-11-25T11:01:05;14.70;99.90
5560;DHT22;2803;47.916;8.074;2022-11-25T11:03:32;13.50;99.90
5560;DHT22;2803;47.916;8.074;2022-11-25T11:05:59;13.70;99.90
5560;DHT22;2803;47.916;8.074;2022-11-25T11:08:36;13.50;99.90
5560;DHT22;2803;47.916;8.074;2022-11-25T11:11:14;13.60;99.90
5560;DHT22;2803;47.916;8.074;2022-11-25T11:13:41;13.20;99.90
5560;DHT22;2803;47.916;8.074;2022-11-25T11:16:22;12.60;99.90
5560;DHT22;2803;47.916;8.074;2022-11-25T11:18:51;12.60;99.90
5560;DHT22;2803;47.916;8.074;2022-11-25T11:21:23;12.90;99.90
5560;DHT22;2803;47.916;8.074;2022-11-25T11:23:53;13.20;99.90
5560;DHT22;2803;47.916;8.074;2022-11-25T11:26:23;13.20;99.90
5560;DHT22;2803;47.916;8.074;2022-11-25T11:28:58;13.30;99.90
5560;DHT22;2803;47.916;8.074;2022-11-25T11:31:28;12.70;99.90
5560;DHT22;2803;47.916;8.074;2022-11-25T11:34:00;12.90;99.90
5560;DHT22;2803;47.916;8.074;2022-11-25T11:36:36;13.00;99.90
5560;DHT22;2803;47.916;8.074;2022-11-25T11:39:18;13.00;99.90
5560;DHT22;2803;47.916;8.074;2022-11-25T11:41:51;13.00;99.90
5560;DHT22;2803;47.916;8.074;2022-11-25T11:44:26;13.00;99.90
5560;DHT22;2803;47.916;8.074;2022-11-25T11:47:07;12.80;99.90
5560;DHT22;2803;47.916;8.074;2022-11-25T11:49:50;12.90;99.90
5560;DHT22;2803;47.916;8.074;2022-11-25T11:52:23;12.90;99.90
5560;DHT22;2803;47.916;8.074;2022-11-25T11:54:56;13.00;99.90
5560;DHT22;2803;47.916;8.074;2022-11-25T11:57:32;12.90;99.90
5560;DHT22;2803;47.916;8.074;2022-11-25T12:00:02;12.90;99.90
5560;DHT22;2803;47.916;8.074;2022-11-25T12:02:38;12.70;99.90
5560;DHT22;2803;47.916;8.074;2022-11-25T12:05:14;12.90;99.90
5560;DHT22;2803;47.916;8.074;2022-11-25T12:07:50;12.50;99.90
5560;DHT22;2803;47.916;8.074;2022-11-25T12:10:25;12.80;99.90
5560;DHT22;2803;47.916;8.074;2022-11-25T12:12:58;12.90;99.90
5560;DHT22;2803;47.916;8.074;2022-11-25T12:15:36;13.10;99.90
5560;DHT22;2803;47.916;8.074;2022-11-25T12:18:13;12.50;99.90
5560;DHT22;2803;47.916;8.074;2022-11-25T12:20:48;12.40;99.90
5560;DHT22;2803;47.916;8.074;2022-11-25T12:23:22;12.40;99.90
5560;DHT22;2803;47.916;8.074;2022-11-25T12:25:56;12.60;99.90
5560;DHT22;2803;47.916;8.074;2022-11-25T12:28:28;12.70;99.90
5560;DHT22;2803;47.916;8.074;2022-11-25T12:31:03;12.90;99.90
5560;DHT22;2803;47.916;8.074;2022-11-25T12:33:42;12.80;99.90
5560;DHT22;2803;47.916;8.074;2022-11-25T12:36:13;12.80;99.90
5560;DHT22;2803;47.916;8.074;2022-11-25T12:38:44;12.80;99.90
5560;DHT22;2803;47.916;8.074;2022-11-25T12:41:19;12.60;99.90
5560;DHT22;2803;47.916;8.074;2022-11-25T12:43:49;12.30;99.90
5560;DHT22;2803;47.916;8.074;2022-11-25T12:46:22;11.50;99.90
5560;DHT22;2803;47.916;8.074;2022-11-25T12:48:51;11.90;99.90
5560;DHT22;2803;47.916;8.074;2022-11-25T12:51:29;12.20;99.90
5560;DHT22;2803;47.916;8.074;2022-11-25T12:54:05;12.40;99.90
5560;DHT22;2803;47.916;8.074;2022-11-25T12:56:49;12.00;99.90
5560;DHT22;2803;47.916;8.074;2022-11-25T12:59:37;12.10;99.90
5560;DHT22;2803;47.916;8.074;2022-11-25T13:02:27;12.20;99.90
5560;DHT22;2803;47.916;8.074;2022-11-25T13:05:24;12.30;99.90
5560;DHT22;2803;47.916;8.074;2022-11-25T13:08:02;12.30;99.90
5560;DHT22;2803;47.916;8.074;2022-11-25T13:10:42;12.30;99.90
5560;DHT22;2803;47.916;8.074;2022-11-25T13:13:26;12.00;99.90
5560;DHT22;2803;47.916;8.074;2022-11-25T13:15:59;11.90;99.90
5560;DHT22;2803;47.916;8.074;2022-11-25T13:18:30;11.90;99.90
5560;DHT22;2803;47.916;8.074;2022-11-25T13:21:05;11.70;99.90
5560;DHT22;2803;47.916;8.074;2022-11-25T13:23:44;11.90;99.90
5560;DHT22;2803;47.916;8.074;2022-11-25T13:26:35;12.10;99.90
5560;DHT22;2803;47.916;8.074;2022-11-25T13:32:25;11.90;99.90
5560;DHT22;2803;47.916;8.074;2022-11-25T13:37:51;11.80;99.90
5560;DHT22;2803;47.916;8.074;2022-11-25T13:40:18;12.20;99.90
5560;DHT22;2803;47.916;8.074;2022-11-25T13:42:46;12.20;99.90
5560;DHT22;2803;47.916;8.074;2022-11-25T13:45:25;11.60;99.90
5560;DHT22;2803;47.916;8.074;2022-11-25T13:47:53;11.50;99.90
5560;DHT22;2803;47.916;8.074;2022-11-25T13:50:22;11.70;99.90
5560;DHT22;2803;47.916;8.074;2022-11-25T13:52:56;11.60;99.90
5560;DHT22;2803;47.916;8.074;2022-11-25T13:55:30;11.70;99.90
5560;DHT22;2803;47.916;8.074;2022-11-25T13:58:04;11.60;99.90
5560;DHT22;2803;47.916;8.074;2022-11-25T14:00:59;11.20;99.90
5560;DHT22;2803;47.916;8.074;2022-11-25T14:03:43;10.90;99.90
5560;DHT22;2803;47.916;8.074;2022-11-25T14:06:24;11.20;99.90
5560;DHT22;2803;47.916;8.074;2022-11-25T14:08:54;10.70;99.90
5560;DHT22;2803;47.916;8.074;2022-11-25T14:11:33;10.90;99.90
5560;DHT22;2803;47.916;8.074;2022-11-25T14:14:15;10.80;99.90
5560;DHT22;2803;47.916;8.074;2022-11-25T14:16:58;10.30;99.90
5560;DHT22;2803;47.916;8.074;2022-11-25T14:19:46;10.50;99.90
5560;DHT22;2803;47.916;8.074;2022-11-25T14:22:34;10.90;99.90
5560;DHT22;2803;47.916;8.074;2022-11-25T14:25:15;11.10;99.90
5560;DHT22;2803;47.916;8.074;2022-11-25T14:27:46;11.10;99.90
5560;DHT22;2803;47.916;8.074;2022-11-25T14:30:14;11.40;99.90
5560;DHT22;2803;47.916;8.074;2022-11-25T14:32:52;11.60;99.90
5560;DHT22;2803;47.916;8.074;2022-11-25T14:35:25;11.80;99.90
5560;DHT22;2803;47.916;8.074;2022-11-25T14:37:55;11.90;99.90
5560;DHT22;2803;47.916;8.074;2022-11-25T14:40:26;12.00;99.90
5560;DHT22;2803;47.916;8.074;2022-11-25T14:43:01;12.10;99.90
5560;DHT22;2803;47.916;8.074;2022-11-25T14:45:30;12.00;99.90
5560;DHT22;2803;47.916;8.074;2022-11-25T14:48:11;12.00;99.90
5560;DHT22;2803;47.916;8.074;2022-11-25T14:50:39;12.10;99.90
5560;DHT22;2803;47.916;8.074;2022-11-25T14:53:07;12.10;99.90
5560;DHT22;2803;47.916;8.074;2022-11-25T14:55:34;12.10;99.90
5560;DHT22;2803;47.916;8.074;2022-11-25T14:58:02;11.90;99.90
5560;DHT22;2803;47.916;8.074;2022-11-25T15:00:29;11.50;99.90
5560;DHT22;2803;47.916;8.074;2022-11-25T15:02:57;11.30;99.90
5560;DHT22;2803;47.916;8.074;2022-11-25T15:05:30;11.50;99.90
5560;DHT22;2803;47.916;8.074;2022-11-25T15:08:00;11.40;99.90
5560;DHT22;2803;47.916;8.074;2022-11-25T15:10:31;11.60;99.90
5560;DHT22;2803;47.916;8.074;2022-11-25T15:12:58;11.70;99.90
5560;DHT22;2803;47.916;8.074;2022-11-25T15:15:26;11.80;99.90
5560;DHT22;2803;47.916;8.074;2022-11-25T15:17:53;11.80;99.90
5560;DHT22;2803;47.916;8.074;2022-11-25T15:20:21;12.00;99.90
5560;DHT22;2803;47.916;8.074;2022-11-25T15:22:52;12.00;99.90
5560;DHT22;2803;47.916;8.074;2022-11-25T15:25:19;12.00;99.90
5560;DHT22;2803;47.916;8.074;2022-11-25T15:27:48;11.20;99.90
5560;DHT22;2803;47.916;8.074;2022-11-25T15:30:18;10.90;99.90
5560;DHT22;2803;47.916;8.074;2022-11-25T15:32:45;10.30;99.90
5560;DHT22;2803;47.916;8.074;2022-11-25T15:35:17;10.00;99.90
5560;DHT22;2803;47.916;8.074;2022-11-25T15:37:44;10.30;99.90
5560;DHT22;2803;47.916;8.074;2022-11-25T15:40:31;9.60;99.90
5560;DHT22;2803;47.916;8.074;2022-11-25T15:43:03;9.70;99.90
5560;DHT22;2803;47.916;8.074;2022-11-25T15:45:35;9.40;99.90
5560;DHT22;2803;47.916;8.074;2022-11-25T15:48:03;9.40;99.90
5560;DHT22;2803;47.916;8.074;2022-11-25T15:50:30;9.70;99.90
5560;DHT22;2803;47.916;8.074;2022-11-25T15:52:59;9.80;99.90
5560;DHT22;2803;47.916;8.074;2022-11-25T15:55:31;10.10;99.90
5560;DHT22;2803;47.916;8.074;2022-11-25T15:58:02;10.20;99.90
5560;DHT22;2803;47.916;8.074;2022-11-25T16:00:30;10.30;99.90
5560;DHT22;2803;47.916;8.074;2022-11-25T16:02:57;10.40;99.90
5560;DHT22;2803;47.916;8.074;2022-11-25T16:05:27;10.50;99.90
5560;DHT22;2803;47.916;8.074;2022-11-25T16:07:58;10.60;99.90
5560;DHT22;2803;47.916;8.074;2022-11-25T16:10:27;10.70;99.90
5560;DHT22;2803;47.916;8.074;2022-11-25T16:13:21;10.80;99.90
5560;DHT22;2803;47.916;8.074;2022-11-25T16:15:56;10.80;99.90
5560;DHT22;2803;47.916;8.074;2022-11-25T16:18:29;10.70;99.90
5560;DHT22;2803;47.916;8.074;2022-11-25T16:20:59;10.60;99.90
5560;DHT22;2803;47.916;8.074;2022-11-25T16:23:27;10.60;99.90
5560;DHT22;2803;47.916;8.074;2022-11-25T16:25:57;10.50;99.90
5560;DHT22;2803;47.916;8.074;2022-11-25T16:28:25;10.50;99.90
5560;DHT22;2803;47.916;8.074;2022-11-25T16:30:52;10.50;99.90
5560;DHT22;2803;47.916;8.074;2022-11-25T16:33:22;10.50;99.90
5560;DHT22;2803;47.916;8.074;2022-11-25T16:35:49;10.60;99.90